EWG15T LEPA-EDDF
Flight info
| Callsign | EWG15T |
|---|---|
| Flight time | N/A |
| Altitude | 36000 |
| Route | MEROS DCT LAPIT DCT CHELY DCT LUMAS DCT IRMAR DCT KINES DCT VANAS DCT ESOKO DCT GODRA DCT LADOL T163 EMPAX EMPAX5D |
| Aircraft | A321/M-SDE3FGHIRWY/LB1 |
Departure
| Time | 2026-05-08 07:13 |
|---|---|
| Airport | Palma de Mallorca Airport (LEPA) |
Arrival
| Time | N/A |
|---|---|
| Airport | Frankfurt Main Airport (EDDF) |
| Time | Latitude | Longitude | Altitude | Speed | Heading |
|---|---|---|---|---|---|
| 2026-05-08 06:41 | 39.55047 | 2.73535 | 39 ft | 0 kts | 165° |
| 2026-05-08 06:42 | 39.55045 | 2.73536 | 39 ft | 0 kts | 165° |
| 2026-05-08 07:02 | 39.55056 | 2.73532 | 38 ft | 4 kts | 165° |
| 2026-05-08 07:02 | 39.55077 | 2.73524 | 36 ft | 4 kts | 174° |
| 2026-05-08 07:02 | 39.55099 | 2.73531 | 35 ft | 4 kts | 225° |
| 2026-05-08 07:03 | 39.55113 | 2.73556 | 36 ft | 4 kts | 239° |
| 2026-05-08 07:03 | 39.55121 | 2.73571 | 37 ft | 0 kts | 239° |
| 2026-05-08 07:04 | 39.55119 | 2.73568 | 37 ft | 2 kts | 239° |
| 2026-05-08 07:05 | 39.55125 | 2.73524 | 37 ft | 10 kts | 316° |
| 2026-05-08 07:05 | 39.55155 | 2.73545 | 38 ft | 8 kts | 52° |
| 2026-05-08 07:05 | 39.55159 | 2.73554 | 38 ft | 0 kts | 60° |
| 2026-05-08 07:06 | 39.55163 | 2.73562 | 38 ft | 4 kts | 61° |
| 2026-05-08 07:06 | 39.55177 | 2.73636 | 38 ft | 12 kts | 118° |
| 2026-05-08 07:06 | 39.55174 | 2.73734 | 38 ft | 13 kts | 115° |
| 2026-05-08 07:06 | 39.55089 | 2.73810 | 38 ft | 17 kts | 146° |
| 2026-05-08 07:07 | 39.55016 | 2.73872 | 38 ft | 19 kts | 151° |
| 2026-05-08 07:07 | 39.54904 | 2.73959 | 38 ft | 18 kts | 149° |
| 2026-05-08 07:07 | 39.54816 | 2.73979 | 38 ft | 11 kts | 211° |
| 2026-05-08 07:07 | 39.54758 | 2.73953 | 38 ft | 11 kts | 169° |
| 2026-05-08 07:08 | 39.54690 | 2.73917 | 38 ft | 12 kts | 231° |
| 2026-05-08 07:08 | 39.54642 | 2.73815 | 37 ft | 12 kts | 243° |
| 2026-05-08 07:08 | 39.54587 | 2.73707 | 38 ft | 17 kts | 233° |
| 2026-05-08 07:08 | 39.54523 | 2.73562 | 38 ft | 20 kts | 238° |
| 2026-05-08 07:09 | 39.54445 | 2.73399 | 38 ft | 20 kts | 238° |
| 2026-05-08 07:09 | 39.54381 | 2.73263 | 38 ft | 16 kts | 239° |
| 2026-05-08 07:09 | 39.54317 | 2.73129 | 38 ft | 16 kts | 239° |
| 2026-05-08 07:09 | 39.54251 | 2.73051 | 38 ft | 10 kts | 178° |
| 2026-05-08 07:10 | 39.54215 | 2.73104 | 38 ft | 0 kts | 99° |
| 2026-05-08 07:10 | 39.54214 | 2.73111 | 38 ft | 3 kts | 99° |
| 2026-05-08 07:11 | 39.54211 | 2.73163 | 38 ft | 8 kts | 91° |
| 2026-05-08 07:11 | 39.54210 | 2.73262 | 38 ft | 14 kts | 97° |
| 2026-05-08 07:11 | 39.54202 | 2.73324 | 38 ft | 8 kts | 80° |
| 2026-05-08 07:11 | 39.54209 | 2.73344 | 36 ft | 0 kts | 60° |
| 2026-05-08 07:12 | 39.54215 | 2.73357 | 38 ft | 17 kts | 60° |
| 2026-05-08 07:12 | 39.54410 | 2.73770 | 38 ft | 88 kts | 58° |
| 2026-05-08 07:13 | 39.54836 | 2.74675 | 39 ft | 145 kts | 59° |
| 2026-05-08 07:13 | 39.55426 | 2.75926 | 264 ft | 171 kts | 60° |
| 2026-05-08 07:13 | 39.56027 | 2.77251 | 934 ft | 170 kts | 60° |
| 2026-05-08 07:13 | 39.56627 | 2.78563 | 1577 ft | 172 kts | 60° |
| 2026-05-08 07:14 | 39.57265 | 2.79948 | 1915 ft | 185 kts | 62° |
| 2026-05-08 07:14 | 39.57932 | 2.81419 | 2247 ft | 196 kts | 62° |
| 2026-05-08 07:14 | 39.58633 | 2.82968 | 2625 ft | 201 kts | 62° |
| 2026-05-08 07:14 | 39.59351 | 2.84541 | 3110 ft | 205 kts | 62° |
| 2026-05-08 07:15 | 39.60082 | 2.86145 | 3639 ft | 208 kts | 63° |
| 2026-05-08 07:15 | 39.60825 | 2.87772 | 4234 ft | 211 kts | 62° |
| 2026-05-08 07:15 | 39.61565 | 2.89396 | 4811 ft | 213 kts | 62° |
| 2026-05-08 07:15 | 39.62325 | 2.91067 | 5320 ft | 220 kts | 62° |
| 2026-05-08 07:16 | 39.63117 | 2.92871 | 5531 ft | 239 kts | 63° |
| 2026-05-08 07:16 | 39.63948 | 2.94793 | 5931 ft | 248 kts | 63° |
| 2026-05-08 07:16 | 39.64819 | 2.96814 | 6271 ft | 264 kts | 63° |
| 2026-05-08 07:16 | 39.65725 | 2.98916 | 6858 ft | 269 kts | 63° |
| 2026-05-08 07:17 | 39.66648 | 3.01053 | 7464 ft | 274 kts | 63° |
| 2026-05-08 07:17 | 39.67588 | 3.03227 | 8045 ft | 279 kts | 62° |
| 2026-05-08 07:17 | 39.68545 | 3.05440 | 8653 ft | 283 kts | 62° |
| 2026-05-08 07:17 | 39.69519 | 3.07688 | 9259 ft | 288 kts | 62° |
| 2026-05-08 07:18 | 39.70509 | 3.09972 | 9854 ft | 293 kts | 62° |
| 2026-05-08 07:18 | 39.71520 | 3.12309 | 10241 ft | 305 kts | 62° |
| 2026-05-08 07:18 | 39.72594 | 3.14795 | 10361 ft | 326 kts | 61° |
| 2026-05-08 07:18 | 39.73732 | 3.17437 | 10510 ft | 344 kts | 61° |
| 2026-05-08 07:19 | 39.74916 | 3.20189 | 10877 ft | 352 kts | 61° |
| 2026-05-08 07:19 | 39.76119 | 3.22986 | 11386 ft | 357 kts | 60° |
| 2026-05-08 07:19 | 39.77370 | 3.25798 | 11883 ft | 362 kts | 56° |
| 2026-05-08 07:19 | 39.78938 | 3.28366 | 12419 ft | 364 kts | 48° |
| 2026-05-08 07:20 | 39.80609 | 3.30862 | 12974 ft | 367 kts | 48° |
| 2026-05-08 07:20 | 39.82292 | 3.33381 | 13517 ft | 370 kts | 48° |
| 2026-05-08 07:20 | 39.83989 | 3.35925 | 14019 ft | 374 kts | 47° |
| 2026-05-08 07:20 | 39.85679 | 3.38460 | 14479 ft | 378 kts | 47° |
| 2026-05-08 07:21 | 39.87411 | 3.41059 | 14920 ft | 382 kts | 47° |
| 2026-05-08 07:21 | 39.89160 | 3.43691 | 15366 ft | 386 kts | 47° |
| 2026-05-08 07:21 | 39.90920 | 3.46349 | 15796 ft | 391 kts | 47° |
| 2026-05-08 07:21 | 39.92707 | 3.49048 | 15973 ft | 393 kts | 47° |
| 2026-05-08 07:22 | 39.94492 | 3.51741 | 16007 ft | 394 kts | 47° |
| 2026-05-08 07:22 | 39.96285 | 3.54452 | 16070 ft | 397 kts | 47° |
| 2026-05-08 07:22 | 39.98093 | 3.57179 | 16582 ft | 398 kts | 47° |
| 2026-05-08 07:22 | 39.99915 | 3.59925 | 17079 ft | 401 kts | 47° |
| 2026-05-08 07:23 | 40.01743 | 3.62690 | 17510 ft | 404 kts | 47° |
| 2026-05-08 07:23 | 40.03591 | 3.65481 | 17921 ft | 408 kts | 46° |
| 2026-05-08 07:23 | 40.05456 | 3.68300 | 18326 ft | 412 kts | 46° |
| 2026-05-08 07:23 | 40.07336 | 3.71147 | 18687 ft | 415 kts | 46° |
| 2026-05-08 07:24 | 40.09222 | 3.74010 | 19062 ft | 418 kts | 46° |
| 2026-05-08 07:24 | 40.11125 | 3.76909 | 19438 ft | 421 kts | 46° |
| 2026-05-08 07:24 | 40.13026 | 3.79818 | 19821 ft | 423 kts | 47° |
| 2026-05-08 07:24 | 40.14947 | 3.82756 | 20227 ft | 425 kts | 46° |
| 2026-05-08 07:25 | 40.16874 | 3.85695 | 20623 ft | 426 kts | 46° |
| 2026-05-08 07:25 | 40.18809 | 3.88648 | 20984 ft | 429 kts | 46° |
| 2026-05-08 07:25 | 40.22679 | 3.94557 | 21731 ft | 432 kts | 46° |
| 2026-05-08 07:26 | 40.24663 | 3.97589 | 22086 ft | 435 kts | 46° |
| 2026-05-08 07:26 | 40.26633 | 4.00607 | 22425 ft | 437 kts | 46° |
| 2026-05-08 07:26 | 40.28588 | 4.03602 | 22750 ft | 440 kts | 46° |
| 2026-05-08 07:26 | 40.30581 | 4.06653 | 23087 ft | 442 kts | 46° |
| 2026-05-08 07:27 | 40.32588 | 4.09732 | 23417 ft | 445 kts | 46° |
| 2026-05-08 07:27 | 40.34597 | 4.12828 | 23724 ft | 447 kts | 46° |
| 2026-05-08 07:27 | 40.36614 | 4.15947 | 24003 ft | 449 kts | 46° |
| 2026-05-08 07:27 | 40.38643 | 4.19082 | 24278 ft | 452 kts | 46° |
| 2026-05-08 07:28 | 40.40683 | 4.22230 | 24572 ft | 454 kts | 45° |
| 2026-05-08 07:28 | 40.42733 | 4.25398 | 24833 ft | 457 kts | 45° |
| 2026-05-08 07:28 | 40.44794 | 4.28583 | 25114 ft | 459 kts | 45° |
| 2026-05-08 07:28 | 40.46945 | 4.31670 | 25373 ft | 457 kts | 38° |
| 2026-05-08 07:29 | 40.49405 | 4.34275 | 25625 ft | 452 kts | 28° |
| 2026-05-08 07:29 | 40.52124 | 4.36305 | 25885 ft | 447 kts | 18° |
| 2026-05-08 07:29 | 40.55023 | 4.37719 | 26141 ft | 442 kts | 9° |
| 2026-05-08 07:29 | 40.58020 | 4.38560 | 26397 ft | 439 kts | 4° |
| 2026-05-08 07:30 | 40.61034 | 4.39273 | 26657 ft | 441 kts | 4° |
| 2026-05-08 07:30 | 40.64054 | 4.39997 | 26916 ft | 443 kts | 4° |
| 2026-05-08 07:30 | 40.67094 | 4.40731 | 27175 ft | 445 kts | 4° |
| 2026-05-08 07:30 | 40.70154 | 4.41471 | 27434 ft | 447 kts | 4° |
| 2026-05-08 07:31 | 40.73173 | 4.42198 | 27684 ft | 449 kts | 4° |
| 2026-05-08 07:31 | 40.76252 | 4.42938 | 27938 ft | 451 kts | 4° |
| 2026-05-08 07:31 | 40.79344 | 4.43681 | 28196 ft | 453 kts | 4° |
| 2026-05-08 07:31 | 40.82449 | 4.44428 | 28457 ft | 454 kts | 4° |
| 2026-05-08 07:32 | 40.85565 | 4.45180 | 28723 ft | 456 kts | 4° |
| 2026-05-08 07:32 | 40.88692 | 4.45937 | 28976 ft | 458 kts | 4° |
| 2026-05-08 07:32 | 40.91831 | 4.46697 | 29225 ft | 459 kts | 4° |
| 2026-05-08 07:32 | 40.94982 | 4.47455 | 29457 ft | 461 kts | 4° |
| 2026-05-08 07:33 | 40.98145 | 4.48215 | 29666 ft | 463 kts | 4° |
| 2026-05-08 07:33 | 41.01319 | 4.48980 | 29908 ft | 464 kts | 4° |
| 2026-05-08 07:33 | 41.04503 | 4.49753 | 30127 ft | 466 kts | 4° |
| 2026-05-08 07:33 | 41.07695 | 4.50533 | 30316 ft | 467 kts | 4° |
| 2026-05-08 07:34 | 41.10892 | 4.51317 | 30494 ft | 468 kts | 4° |
| 2026-05-08 07:34 | 41.14096 | 4.52103 | 30660 ft | 469 kts | 4° |
| 2026-05-08 07:34 | 41.17301 | 4.52887 | 30891 ft | 468 kts | 3° |
| 2026-05-08 07:34 | 41.20502 | 4.53670 | 31114 ft | 468 kts | 3° |
| 2026-05-08 07:35 | 41.23701 | 4.54453 | 31328 ft | 467 kts | 3° |
| 2026-05-08 07:35 | 41.26899 | 4.55234 | 31563 ft | 467 kts | 3° |
| 2026-05-08 07:35 | 41.30091 | 4.56012 | 31818 ft | 466 kts | 2° |
| 2026-05-08 07:35 | 41.33282 | 4.56790 | 32054 ft | 465 kts | 2° |
| 2026-05-08 07:36 | 41.36419 | 4.57560 | 32275 ft | 464 kts | 2° |
| 2026-05-08 07:36 | 41.39592 | 4.58342 | 32529 ft | 463 kts | 2° |
| 2026-05-08 07:36 | 41.42755 | 4.59124 | 32778 ft | 462 kts | 2° |
| 2026-05-08 07:36 | 41.45913 | 4.59902 | 32991 ft | 461 kts | 2° |
| 2026-05-08 07:37 | 41.49068 | 4.60677 | 33226 ft | 460 kts | 1° |
| 2026-05-08 07:37 | 41.52214 | 4.61451 | 33489 ft | 459 kts | 1° |
| 2026-05-08 07:37 | 41.55361 | 4.62228 | 33705 ft | 459 kts | 1° |
| 2026-05-08 07:37 | 41.58492 | 4.63001 | 33906 ft | 458 kts | 1° |
| 2026-05-08 07:38 | 41.61637 | 4.63777 | 34095 ft | 458 kts | 1° |
| 2026-05-08 07:38 | 41.64773 | 4.64552 | 34271 ft | 458 kts | 1° |
| 2026-05-08 07:38 | 41.67909 | 4.65326 | 34433 ft | 458 kts | 1° |
| 2026-05-08 07:38 | 41.71040 | 4.66171 | 34634 ft | 463 kts | 6° |
| 2026-05-08 07:39 | 41.74120 | 4.67576 | 34805 ft | 473 kts | 15° |
| 2026-05-08 07:39 | 41.77063 | 4.69635 | 34966 ft | 483 kts | 23° |
| 2026-05-08 07:39 | 41.79948 | 4.71961 | 35104 ft | 483 kts | 23° |
| 2026-05-08 07:39 | 41.82826 | 4.74285 | 35273 ft | 483 kts | 22° |
| 2026-05-08 07:40 | 41.85699 | 4.76602 | 35430 ft | 483 kts | 22° |
| 2026-05-08 07:40 | 41.88580 | 4.78921 | 35588 ft | 483 kts | 22° |
| 2026-05-08 07:40 | 41.91459 | 4.81241 | 35786 ft | 482 kts | 22° |
| 2026-05-08 07:40 | 41.94332 | 4.83560 | 35968 ft | 481 kts | 22° |
| 2026-05-08 07:41 | 41.97204 | 4.85877 | 36038 ft | 481 kts | 22° |
| 2026-05-08 07:41 | 42.02941 | 4.90509 | 36042 ft | 481 kts | 22° |
| 2026-05-08 07:42 | 42.08670 | 4.95159 | 36043 ft | 481 kts | 23° |
| 2026-05-08 07:42 | 42.14381 | 4.99803 | 36040 ft | 478 kts | 22° |
| 2026-05-08 07:43 | 42.20073 | 5.04430 | 36042 ft | 477 kts | 22° |
| 2026-05-08 07:43 | 42.25724 | 5.09038 | 36045 ft | 478 kts | 23° |
| 2026-05-08 07:44 | 42.31408 | 5.13696 | 36071 ft | 478 kts | 23° |
| 2026-05-08 07:44 | 42.37103 | 5.18370 | 36070 ft | 478 kts | 23° |
| 2026-05-08 07:45 | 42.42789 | 5.23037 | 36064 ft | 478 kts | 23° |
| 2026-05-08 07:45 | 42.48474 | 5.27706 | 36064 ft | 478 kts | 23° |
| 2026-05-08 07:46 | 42.54136 | 5.32365 | 36047 ft | 474 kts | 24° |
| 2026-05-08 07:46 | 42.59764 | 5.37023 | 36045 ft | 474 kts | 24° |
| 2026-05-08 07:47 | 42.65400 | 5.41687 | 36047 ft | 474 kts | 24° |
| 2026-05-08 07:47 | 42.71039 | 5.46363 | 36051 ft | 475 kts | 24° |
| 2026-05-08 07:48 | 42.76679 | 5.51055 | 36058 ft | 475 kts | 24° |
| 2026-05-08 07:48 | 42.82319 | 5.55761 | 36060 ft | 475 kts | 24° |
| 2026-05-08 07:49 | 42.87967 | 5.60473 | 36061 ft | 475 kts | 24° |
| 2026-05-08 07:49 | 42.93598 | 5.65184 | 36065 ft | 474 kts | 25° |
| 2026-05-08 07:50 | 42.99209 | 5.69908 | 36071 ft | 474 kts | 25° |
| 2026-05-08 07:50 | 43.04824 | 5.74631 | 36065 ft | 474 kts | 26° |
| 2026-05-08 07:51 | 43.10410 | 5.79329 | 36070 ft | 474 kts | 26° |
| 2026-05-08 07:51 | 43.16017 | 5.84061 | 36057 ft | 474 kts | 26° |
| 2026-05-08 07:52 | 43.21625 | 5.88812 | 36054 ft | 474 kts | 26° |
| 2026-05-08 07:52 | 43.27231 | 5.93571 | 36054 ft | 474 kts | 26° |
| 2026-05-08 07:53 | 43.32841 | 5.98339 | 36066 ft | 473 kts | 27° |
| 2026-05-08 07:53 | 43.38582 | 6.02637 | 36063 ft | 466 kts | 15° |
| 2026-05-08 07:54 | 43.43729 | 6.04439 | 36058 ft | 454 kts | 1° |
| 2026-05-08 07:54 | 43.50005 | 6.05108 | 36070 ft | 453 kts | 359° |
| 2026-05-08 07:55 | 43.56293 | 6.05741 | 36061 ft | 453 kts | 359° |
| 2026-05-08 07:55 | 43.62592 | 6.06367 | 36058 ft | 454 kts | 359° |
| 2026-05-08 07:56 | 43.68898 | 6.07006 | 36070 ft | 455 kts | 359° |
| 2026-05-08 07:56 | 43.75212 | 6.07787 | 36057 ft | 459 kts | 6° |
| 2026-05-08 07:57 | 43.81309 | 6.10653 | 36048 ft | 469 kts | 23° |
| 2026-05-08 07:57 | 43.87169 | 6.14669 | 36063 ft | 470 kts | 23° |
| 2026-05-08 07:58 | 43.93010 | 6.18653 | 36056 ft | 472 kts | 23° |
| 2026-05-08 07:58 | 43.98912 | 6.22677 | 36055 ft | 472 kts | 23° |
| 2026-05-08 07:59 | 44.04808 | 6.26712 | 36055 ft | 473 kts | 23° |
| 2026-05-08 07:59 | 44.10709 | 6.30773 | 36067 ft | 473 kts | 24° |
| 2026-05-08 08:00 | 44.16617 | 6.34840 | 36063 ft | 473 kts | 23° |
| 2026-05-08 08:00 | 44.22531 | 6.38917 | 36063 ft | 474 kts | 23° |
| 2026-05-08 08:01 | 44.28437 | 6.42997 | 36075 ft | 474 kts | 24° |
| 2026-05-08 08:01 | 44.34354 | 6.47098 | 36059 ft | 475 kts | 24° |
| 2026-05-08 08:02 | 44.40233 | 6.51193 | 36059 ft | 475 kts | 24° |
| 2026-05-08 08:02 | 44.46159 | 6.55320 | 36073 ft | 476 kts | 24° |
| 2026-05-08 08:03 | 44.52094 | 6.59455 | 36066 ft | 477 kts | 24° |
| 2026-05-08 08:03 | 44.58035 | 6.63604 | 36070 ft | 477 kts | 24° |
| 2026-05-08 08:04 | 44.63974 | 6.67767 | 36060 ft | 477 kts | 24° |
| 2026-05-08 08:04 | 44.69918 | 6.71939 | 36090 ft | 478 kts | 24° |
| 2026-05-08 08:05 | 44.75873 | 6.76085 | 36087 ft | 476 kts | 21° |
| 2026-05-08 08:05 | 44.82193 | 6.78514 | 36096 ft | 469 kts | 2° |
| 2026-05-08 08:06 | 44.88665 | 6.78453 | 36092 ft | 465 kts | 353° |
| 2026-05-08 08:06 | 44.95129 | 6.78021 | 36094 ft | 465 kts | 354° |
| 2026-05-08 08:07 | 45.01610 | 6.77624 | 36106 ft | 466 kts | 354° |
| 2026-05-08 08:07 | 45.08051 | 6.77211 | 36108 ft | 466 kts | 353° |
| 2026-05-08 08:08 | 45.14580 | 6.76769 | 36098 ft | 467 kts | 353° |
| 2026-05-08 08:08 | 45.21026 | 6.76335 | 36109 ft | 467 kts | 353° |
| 2026-05-08 08:09 | 45.27517 | 6.75905 | 36108 ft | 467 kts | 353° |
| 2026-05-08 08:09 | 45.34003 | 6.75469 | 36103 ft | 467 kts | 353° |
| 2026-05-08 08:10 | 45.40498 | 6.75064 | 36100 ft | 468 kts | 356° |
| 2026-05-08 08:10 | 45.46974 | 6.76499 | 36099 ft | 476 kts | 16° |
| 2026-05-08 08:11 | 45.52939 | 6.80655 | 36105 ft | 479 kts | 28° |
| 2026-05-08 08:11 | 45.58711 | 6.85447 | 36114 ft | 480 kts | 28° |
| 2026-05-08 08:12 | 45.64483 | 6.90246 | 36118 ft | 480 kts | 28° |
| 2026-05-08 08:12 | 45.70263 | 6.95071 | 36116 ft | 480 kts | 28° |
| 2026-05-08 08:13 | 45.76038 | 6.99899 | 36139 ft | 481 kts | 28° |
| 2026-05-08 08:13 | 45.81816 | 7.04741 | 36127 ft | 481 kts | 28° |
| 2026-05-08 08:14 | 45.87591 | 7.09585 | 36120 ft | 481 kts | 28° |
| 2026-05-08 08:14 | 45.93359 | 7.14443 | 36107 ft | 481 kts | 28° |
| 2026-05-08 08:15 | 45.99134 | 7.19326 | 36101 ft | 482 kts | 28° |
| 2026-05-08 08:15 | 46.04916 | 7.24230 | 36103 ft | 482 kts | 28° |
| 2026-05-08 08:16 | 46.10656 | 7.29101 | 36108 ft | 483 kts | 28° |
| 2026-05-08 08:16 | 46.16441 | 7.34014 | 36118 ft | 483 kts | 28° |
| 2026-05-08 08:17 | 46.22225 | 7.38947 | 36110 ft | 482 kts | 28° |
| 2026-05-08 08:17 | 46.27983 | 7.43887 | 36112 ft | 482 kts | 28° |
| 2026-05-08 08:18 | 46.33740 | 7.48834 | 36121 ft | 481 kts | 28° |
| 2026-05-08 08:18 | 46.39496 | 7.53776 | 36101 ft | 480 kts | 28° |
| 2026-05-08 08:19 | 46.45240 | 7.58723 | 36102 ft | 480 kts | 28° |
| 2026-05-08 08:19 | 46.50969 | 7.63680 | 36099 ft | 479 kts | 28° |
| 2026-05-08 08:20 | 46.56694 | 7.68650 | 36099 ft | 479 kts | 29° |
| 2026-05-08 08:20 | 46.62440 | 7.73522 | 36094 ft | 478 kts | 26° |
| 2026-05-08 08:21 | 46.68334 | 7.78005 | 36090 ft | 477 kts | 24° |
| 2026-05-08 08:21 | 46.74253 | 7.82376 | 36088 ft | 477 kts | 25° |
| 2026-05-08 08:22 | 46.80148 | 7.86856 | 36091 ft | 477 kts | 25° |
| 2026-05-08 08:22 | 46.86011 | 7.91400 | 36089 ft | 477 kts | 26° |
| 2026-05-08 08:23 | 46.91874 | 7.95967 | 36100 ft | 477 kts | 26° |
| 2026-05-08 08:23 | 46.97735 | 8.00521 | 36105 ft | 477 kts | 26° |
| 2026-05-08 08:24 | 47.03596 | 8.05079 | 36106 ft | 476 kts | 26° |
| 2026-05-08 08:24 | 47.09444 | 8.09637 | 36107 ft | 476 kts | 26° |
| 2026-05-08 08:25 | 47.15295 | 8.14202 | 36099 ft | 476 kts | 26° |
| 2026-05-08 08:25 | 47.21139 | 8.18779 | 36102 ft | 476 kts | 26° |